Ames, Oklahoma
Current Conditions -  °F | °C
As of 4:58 AM on Thursday 23 Oct 2014 (Local Time) from KEND Reporting Station
Broken Clouds Broken Clouds  
Wind Chill: 16°   Ceiling: 5000
Heat Index: 16°   Visibility: 10mi
Dew Point: 16°   Wind: 9mph
Humidity: 96%   Direction: 170°S
Pressure: 30.08"   Gusts: NA
Location:  36.25°N, 98.19°W
Report Text: KEND 230958Z AUTO 17008KT 10SM BKN050 16/16 A3008 RMK AO2 SLP179 P2400 T01630157 $
Loading
Personal Weather Stations






























Interactive Weather Map
Tropical Storm Tracking
New forecast layout! Learn more

10-Day Weather Forecast

Advertisements
Track Severe Weather on mobile